Time;durP1;ratioP1;P1;durP2;ratioP2;P2;SDS_P1;SDS_P2;PMS_P1;PMS_P2;Temp;Humidity;BMP_temperature;BMP_pressure;BME280_temperature;BME280_humidity;BME280_pressure;Samples;Min_cycle;Max_cycle;Signal;HPM_P1;HPM_P2
2023/07/07 00:00:55;;;;;;;8.27;4.32;;;;;;;;;;4973838;28;20696;-61
2023/07/07 00:03:21;;;;;;;7.72;3.97;;;;;;;;;;4973084;28;20332;-61
2023/07/07 00:05:47;;;;;;;7.50;4.00;;;;;;;;;;4973012;28;20210;-61
2023/07/07 00:08:12;;;;;;;8.65;4.50;;;;;;;;;;4972823;28;20362;-60
2023/07/07 00:10:38;;;;;;;9.85;4.28;;;;;;;;;;4973787;28;20223;-61
2023/07/07 00:13:03;;;;;;;12.82;5.30;;;;;;;;;;4972074;28;20300;-61
2023/07/07 00:15:28;;;;;;;8.75;4.45;;;;;;;;;;4973491;28;20206;-61
2023/07/07 00:17:54;;;;;;;8.02;4.43;;;;;;;;;;4973276;28;20230;-60
2023/07/07 00:20:21;;;;;;;8.77;4.55;;;;;;;;;;4972168;28;20213;-60
2023/07/07 00:22:47;;;;;;;10.13;4.97;;;;;;;;;;4973474;28;20225;-60
2023/07/07 00:25:12;;;;;;;8.02;4.85;;;;;;;;;;4972962;28;20209;-61
2023/07/07 00:27:38;;;;;;;9.15;5.07;;;;;;;;;;4972749;28;20220;-60
2023/07/07 00:30:03;;;;;;;8.38;5.38;;;;;;;;;;4972517;28;20237;-60
2023/07/07 00:32:29;;;;;;;9.55;5.38;;;;;;;;;;4955799;28;20213;-60
2023/07/07 00:34:54;;;;;;;11.85;6.00;;;;;;;;;;4971977;28;20346;-60
2023/07/07 00:37:20;;;;;;;10.07;5.47;;;;;;;;;;4972677;28;20277;-60
2023/07/07 00:39:45;;;;;;;12.40;5.82;;;;;;;;;;4972301;28;20590;-61
2023/07/07 00:42:10;;;;;;;11.43;5.32;;;;;;;;;;4972598;28;20229;-61
2023/07/07 00:44:55;;;;;;;11.85;6.30;;;;;;;;;;4972871;28;20240;-61
2023/07/07 00:47:20;;;;;;;9.43;5.47;;;;;;;;;;4971723;28;20301;-61
2023/07/07 00:49:45;;;;;;;8.88;5.50;;;;;;;;;;4973051;28;20321;-61
2023/07/07 00:52:10;;;;;;;10.20;5.57;;;;;;;;;;4972311;28;20740;-60
2023/07/07 00:54:36;;;;;;;9.88;5.47;;;;;;;;;;4971691;28;20214;-61
2023/07/07 00:57:01;;;;;;;8.27;5.70;;;;;;;;;;4972226;28;20250;-60
2023/07/07 00:59:30;;;;;;;7.22;5.10;;;;;;;;;;4972833;28;20225;-60
2023/07/07 01:01:56;;;;;;;9.27;5.95;;;;;;;;;;4971934;28;20252;-61
2023/07/07 01:04:21;;;;;;;11.60;5.88;;;;;;;;;;4971966;28;20221;-60
2023/07/07 01:06:49;;;;;;;10.00;6.25;;;;;;;;;;4971223;28;20213;-61
2023/07/07 01:09:14;;;;;;;11.38;6.05;;;;;;;;;;4971162;28;20681;-60
2023/07/07 01:11:39;;;;;;;8.50;5.78;;;;;;;;;;4972149;28;20217;-60
2023/07/07 01:14:06;;;;;;;9.85;5.70;;;;;;;;;;4971642;28;20564;-60
2023/07/07 01:16:36;;;;;;;10.98;5.80;;;;;;;;;;4971563;28;20300;-61
2023/07/07 01:19:15;;;;;;;9.50;6.43;;;;;;;;;;4954510;28;20217;-60
2023/07/07 01:21:44;;;;;;;7.72;5.68;;;;;;;;;;4972356;28;20633;-60
2023/07/07 01:24:10;;;;;;;11.63;5.93;;;;;;;;;;4953831;28;20217;-60
2023/07/07 01:26:41;;;;;;;10.32;6.20;;;;;;;;;;4972211;28;20209;-61
2023/07/07 01:29:21;;;;;;;9.35;6.35;;;;;;;;;;4971045;28;20586;-61
2023/07/07 01:31:48;;;;;;;11.38;6.75;;;;;;;;;;4954762;28;20241;-61
2023/07/07 01:37:17;;;;;;;9.50;6.70;;;;;;;;;;4969994;28;20256;-60
2023/07/07 01:39:42;;;;;;;10.38;6.75;;;;;;;;;;4971855;28;20256;-60
2023/07/07 01:42:10;;;;;;;11.07;6.50;;;;;;;;;;4971312;28;20297;-61
2023/07/07 01:44:36;;;;;;;10.32;6.93;;;;;;;;;;4953779;28;20212;-61
2023/07/07 01:47:11;;;;;;;10.32;6.13;;;;;;;;;;4970656;28;20584;-61
2023/07/07 01:49:45;;;;;;;8.77;6.28;;;;;;;;;;4961448;28;20300;-60
2023/07/07 01:52:12;;;;;;;11.32;7.10;;;;;;;;;;4939640;28;20232;-60
2023/07/07 01:54:40;;;;;;;10.25;6.63;;;;;;;;;;4955681;28;20213;-60
2023/07/07 01:57:05;;;;;;;10.82;6.95;;;;;;;;;;4949223;28;20317;-60
2023/07/07 01:59:31;;;;;;;9.77;6.50;;;;;;;;;;4942506;28;20376;-60
2023/07/07 02:01:56;;;;;;;9.70;6.63;;;;;;;;;;4946581;28;20214;-61
2023/07/07 02:04:22;;;;;;;11.57;6.97;;;;;;;;;;4962710;28;20237;-60
2023/07/07 02:06:47;;;;;;;10.88;6.70;;;;;;;;;;4948803;28;20218;-60
2023/07/07 02:09:12;;;;;;;12.07;6.55;;;;;;;;;;4944570;28;20210;-61
2023/07/07 02:11:38;;;;;;;11.45;6.43;;;;;;;;;;4943956;28;20253;-61
2023/07/07 02:14:03;;;;;;;10.25;6.60;;;;;;;;;;4941063;28;20210;-60
2023/07/07 02:16:28;;;;;;;10.57;6.03;;;;;;;;;;4936930;28;20757;-60
2023/07/07 02:18:54;;;;;;;10.45;6.25;;;;;;;;;;4936098;28;20250;-61
2023/07/07 02:21:19;;;;;;;10.40;6.72;;;;;;;;;;4957757;28;20251;-61
2023/07/07 02:23:44;;;;;;;11.32;6.40;;;;;;;;;;4949958;28;20218;-61
2023/07/07 02:26:10;;;;;;;9.15;6.07;;;;;;;;;;4942745;28;20268;-61
2023/07/07 02:28:35;;;;;;;10.73;6.35;;;;;;;;;;4944634;28;20701;-60
2023/07/07 02:31:01;;;;;;;10.10;6.28;;;;;;;;;;4943618;28;20702;-60
2023/07/07 02:33:31;;;;;;;9.25;6.25;;;;;;;;;;4944099;28;20638;-61
2023/07/07 02:35:59;;;;;;;11.45;6.40;;;;;;;;;;4962058;28;20240;-61
2023/07/07 02:38:24;;;;;;;10.43;6.85;;;;;;;;;;4955399;28;20221;-61
2023/07/07 02:40:49;;;;;;;10.98;6.38;;;;;;;;;;4954472;28;20226;-61
2023/07/07 02:43:15;;;;;;;13.25;6.25;;;;;;;;;;4955828;28;20260;-61
2023/07/07 02:45:42;;;;;;;9.00;6.30;;;;;;;;;;4952337;28;20225;-60
2023/07/07 02:48:08;;;;;;;9.82;6.53;;;;;;;;;;4943850;28;20729;-60
2023/07/07 02:50:33;;;;;;;12.02;6.72;;;;;;;;;;4944411;28;20297;-61
2023/07/07 02:52:58;;;;;;;10.85;6.43;;;;;;;;;;4946642;28;20210;-60
2023/07/07 02:55:24;;;;;;;12.25;6.50;;;;;;;;;;4962457;28;20218;-60
2023/07/07 02:57:50;;;;;;;10.27;6.70;;;;;;;;;;4959017;28;20234;-61
2023/07/07 03:00:15;;;;;;;9.52;6.05;;;;;;;;;;4955222;29;20206;-60
2023/07/07 03:02:40;;;;;;;9.98;6.03;;;;;;;;;;4955242;29;20211;-60
2023/07/07 03:05:06;;;;;;;11.27;6.07;;;;;;;;;;4954962;29;20265;-60
2023/07/07 03:07:31;;;;;;;10.68;6.13;;;;;;;;;;4954751;29;20579;-60
2023/07/07 03:09:57;;;;;;;11.23;6.07;;;;;;;;;;4969285;28;20260;-60
2023/07/07 03:12:22;;;;;;;9.60;6.25;;;;;;;;;;4974219;28;20209;-60
2023/07/07 03:14:48;;;;;;;10.80;6.20;;;;;;;;;;4973614;28;20641;-61
2023/07/07 03:17:16;;;;;;;9.65;5.93;;;;;;;;;;4974253;28;20647;-60
2023/07/07 03:19:42;;;;;;;10.32;6.47;;;;;;;;;;4974825;28;20220;-61
2023/07/07 03:22:07;;;;;;;10.25;5.70;;;;;;;;;;4973374;28;20615;-60
2023/07/07 03:24:32;;;;;;;9.05;6.32;;;;;;;;;;4974415;28;20733;-61
2023/07/07 03:26:57;;;;;;;10.20;6.40;;;;;;;;;;4974395;28;20218;-60
2023/07/07 03:29:23;;;;;;;10.77;6.20;;;;;;;;;;4972720;28;20218;-60
2023/07/07 03:31:48;;;;;;;10.23;5.97;;;;;;;;;;4974479;28;20233;-61
2023/07/07 03:34:13;;;;;;;12.73;6.88;;;;;;;;;;4953087;28;20227;-61
2023/07/07 03:36:39;;;;;;;10.50;6.75;;;;;;;;;;4946957;28;20317;-61
2023/07/07 03:39:04;;;;;;;12.55;6.68;;;;;;;;;;4944188;28;20270;-61
2023/07/07 03:41:29;;;;;;;10.73;6.72;;;;;;;;;;4939669;28;20265;-61
2023/07/07 03:43:55;;;;;;;11.95;6.10;;;;;;;;;;4956833;28;20226;-61
2023/07/07 03:46:22;;;;;;;12.15;6.38;;;;;;;;;;4944548;28;20226;-61
2023/07/07 03:48:48;;;;;;;8.90;6.32;;;;;;;;;;4965816;28;20870;-61
2023/07/07 03:51:13;;;;;;;10.43;6.03;;;;;;;;;;4951280;28;20222;-61
2023/07/07 03:53:38;;;;;;;9.73;6.07;;;;;;;;;;4947362;28;20214;-60
2023/07/07 03:56:05;;;;;;;8.95;5.55;;;;;;;;;;4945827;28;20713;-61
2023/07/07 03:58:30;;;;;;;10.88;6.35;;;;;;;;;;4946572;28;20274;-61
2023/07/07 04:00:59;;;;;;;9.23;6.40;;;;;;;;;;4964578;28;20213;-61
2023/07/07 04:03:24;;;;;;;9.55;6.25;;;;;;;;;;4957097;28;20236;-61
2023/07/07 04:05:50;;;;;;;10.10;6.05;;;;;;;;;;4957412;28;20841;-61
2023/07/07 04:08:22;;;;;;;12.23;6.53;;;;;;;;;;4943847;28;20214;-61
2023/07/07 04:10:59;;;;;;;10.52;6.47;;;;;;;;;;4964992;28;20214;-61
2023/07/07 04:13:24;;;;;;;9.45;6.28;;;;;;;;;;4953053;28;20630;-61
2023/07/07 04:16:02;;;;;;;11.02;6.30;;;;;;;;;;4947286;28;20289;-61
2023/07/07 04:18:27;;;;;;;9.48;5.93;;;;;;;;;;4964252;28;20253;-61
2023/07/07 04:20:53;;;;;;;10.85;6.28;;;;;;;;;;4965462;28;20315;-61
2023/07/07 04:23:18;;;;;;;8.82;5.90;;;;;;;;;;4964984;28;20217;-61
2023/07/07 04:25:44;;;;;;;10.88;6.20;;;;;;;;;;4957165;28;20210;-61
2023/07/07 04:28:10;;;;;;;12.13;6.22;;;;;;;;;;4956466;28;20430;-60
2023/07/07 04:30:35;;;;;;;9.23;5.88;;;;;;;;;;4939161;28;20241;-60
2023/07/07 04:33:00;;;;;;;10.73;5.65;;;;;;;;;;4945006;28;20221;-60
2023/07/07 04:35:26;;;;;;;8.85;5.28;;;;;;;;;;4945825;28;20242;-61
2023/07/07 04:37:51;;;;;;;9.32;5.22;;;;;;;;;;4946228;28;20321;-61
2023/07/07 04:40:16;;;;;;;9.48;5.05;;;;;;;;;;4945021;28;20223;-61
2023/07/07 04:42:41;;;;;;;8.88;5.28;;;;;;;;;;4946391;28;20222;-61
2023/07/07 04:45:07;;;;;;;9.55;5.07;;;;;;;;;;4945185;28;20588;-61
2023/07/07 04:47:32;;;;;;;9.10;5.40;;;;;;;;;;4940823;28;20490;-61
2023/07/07 04:49:58;;;;;;;10.77;5.45;;;;;;;;;;4937790;28;20705;-61
2023/07/07 04:52:23;;;;;;;7.68;5.20;;;;;;;;;;4937390;28;20548;-61
2023/07/07 04:54:49;;;;;;;9.30;4.95;;;;;;;;;;4961110;28;20269;-61
2023/07/07 04:57:14;;;;;;;8.93;5.40;;;;;;;;;;4955197;28;20591;-61
2023/07/07 04:59:40;;;;;;;8.70;5.75;;;;;;;;;;4951734;28;20523;-61
2023/07/07 05:02:05;;;;;;;7.28;5.10;;;;;;;;;;4944619;28;20226;-60
2023/07/07 05:04:30;;;;;;;10.35;5.28;;;;;;;;;;4945805;28;20235;-60
2023/07/07 05:06:56;;;;;;;8.30;4.95;;;;;;;;;;4944925;28;20582;-61
2023/07/07 05:09:21;;;;;;;10.57;4.88;;;;;;;;;;4942888;28;20206;-61
2023/07/07 05:11:46;;;;;;;9.77;4.97;;;;;;;;;;4938286;28;20641;-61
2023/07/07 05:14:12;;;;;;;11.43;5.00;;;;;;;;;;4936676;28;20543;-61
2023/07/07 05:16:37;;;;;;;11.15;5.18;;;;;;;;;;4942068;28;20253;-61
2023/07/07 05:19:03;;;;;;;11.88;5.30;;;;;;;;;;4947777;28;20226;-61
2023/07/07 05:21:28;;;;;;;7.93;4.85;;;;;;;;;;4962589;28;20569;-61
2023/07/07 05:23:53;;;;;;;9.20;4.97;;;;;;;;;;4971741;28;20209;-61
2023/07/07 05:26:20;;;;;;;9.55;4.57;;;;;;;;;;4971204;28;20214;-61
2023/07/07 05:28:45;;;;;;;7.70;4.32;;;;;;;;;;4971324;28;20217;-61
2023/07/07 05:31:11;;;;;;;11.13;5.07;;;;;;;;;;4970698;28;20233;-61
2023/07/07 05:33:37;;;;;;;8.57;4.80;;;;;;;;;;4971532;28;20429;-61
2023/07/07 05:36:03;;;;;;;10.88;4.50;;;;;;;;;;4970532;28;20222;-61
2023/07/07 05:38:28;;;;;;;7.63;4.05;;;;;;;;;;4990518;28;20221;-60
2023/07/07 05:40:54;;;;;;;7.90;4.22;;;;;;;;;;4991379;28;20300;-60
2023/07/07 05:43:20;;;;;;;9.48;5.00;;;;;;;;;;4990221;28;20765;-60
2023/07/07 05:45:45;;;;;;;7.97;4.20;;;;;;;;;;4979247;28;20206;-61
2023/07/07 05:48:11;;;;;;;8.18;5.00;;;;;;;;;;4971161;28;20245;-61
2023/07/07 05:50:36;;;;;;;8.68;4.55;;;;;;;;;;4971244;28;20205;-61
2023/07/07 05:53:02;;;;;;;12.93;5.10;;;;;;;;;;4953935;28;20771;-61
2023/07/07 05:55:29;;;;;;;8.68;5.30;;;;;;;;;;4971415;28;20224;-61
2023/07/07 05:57:55;;;;;;;9.55;5.47;;;;;;;;;;4970955;28;20226;-61
2023/07/07 06:00:20;;;;;;;10.20;5.82;;;;;;;;;;4971164;28;20229;-60
2023/07/07 06:02:46;;;;;;;14.00;6.63;;;;;;;;;;4954047;28;20727;-60
2023/07/07 06:05:11;;;;;;;10.70;6.43;;;;;;;;;;4970376;28;20273;-60
2023/07/07 06:07:36;;;;;;;9.70;6.05;;;;;;;;;;4971571;28;20224;-60
2023/07/07 06:10:02;;;;;;;10.45;6.50;;;;;;;;;;4970884;28;20654;-60
2023/07/07 06:12:28;;;;;;;11.07;6.20;;;;;;;;;;4970935;28;20209;-60
2023/07/07 06:14:53;;;;;;;12.88;6.63;;;;;;;;;;4971455;28;20632;-60
2023/07/07 06:17:18;;;;;;;10.40;6.10;;;;;;;;;;4969815;28;20724;-60
2023/07/07 06:19:44;;;;;;;10.75;6.90;;;;;;;;;;4971230;28;20241;-61
2023/07/07 06:22:09;;;;;;;11.00;7.07;;;;;;;;;;4967497;28;20225;-60
2023/07/07 06:24:34;;;;;;;11.00;6.80;;;;;;;;;;4961301;28;21094;-61
2023/07/07 06:27:00;;;;;;;10.27;7.13;;;;;;;;;;4971270;28;20217;-61
2023/07/07 06:29:25;;;;;;;10.77;6.85;;;;;;;;;;4951974;28;20203;-61
2023/07/07 06:31:50;;;;;;;14.15;7.40;;;;;;;;;;4957413;28;20222;-60
2023/07/07 06:34:15;;;;;;;11.43;6.97;;;;;;;;;;4951660;29;20254;-61
2023/07/07 06:36:41;;;;;;;11.13;6.60;;;;;;;;;;4951946;29;20229;-60
2023/07/07 06:39:06;;;;;;;12.88;7.65;;;;;;;;;;4950692;29;20582;-60
2023/07/07 06:41:31;;;;;;;11.27;7.13;;;;;;;;;;4951796;29;20224;-61
2023/07/07 06:43:57;;;;;;;12.38;6.90;;;;;;;;;;4951906;29;20222;-61
2023/07/07 06:46:23;;;;;;;11.27;6.65;;;;;;;;;;4967117;28;20268;-61
2023/07/07 06:48:48;;;;;;;10.93;6.85;;;;;;;;;;4969345;28;20214;-60
2023/07/07 06:51:13;;;;;;;13.02;7.20;;;;;;;;;;4970627;28;20214;-61
2023/07/07 06:53:39;;;;;;;15.52;7.25;;;;;;;;;;4970693;28;20673;-60
2023/07/07 06:56:04;;;;;;;11.27;7.00;;;;;;;;;;4969532;28;20677;-61
2023/07/07 06:58:30;;;;;;;10.10;6.75;;;;;;;;;;4971000;28;20226;-61
2023/07/07 07:00:55;;;;;;;10.30;6.63;;;;;;;;;;4970663;28;20693;-61
2023/07/07 07:03:21;;;;;;;12.25;6.80;;;;;;;;;;4970802;28;20209;-61
2023/07/07 07:05:46;;;;;;;13.02;7.05;;;;;;;;;;4970793;28;20305;-61
2023/07/07 07:08:11;;;;;;;11.10;6.70;;;;;;;;;;4970101;28;20210;-61
2023/07/07 07:10:37;;;;;;;10.95;6.40;;;;;;;;;;4970509;28;20227;-61
2023/07/07 07:13:02;;;;;;;12.85;7.10;;;;;;;;;;4970295;28;20213;-61
2023/07/07 07:15:27;;;;;;;11.95;7.03;;;;;;;;;;4970355;28;20213;-61
2023/07/07 07:17:52;;;;;;;13.82;7.18;;;;;;;;;;4970559;28;20219;-61
2023/07/07 07:20:18;;;;;;;11.90;7.68;;;;;;;;;;4970206;28;20222;-60
2023/07/07 07:22:44;;;;;;;11.73;6.50;;;;;;;;;;4970567;28;20284;-61
2023/07/07 07:25:09;;;;;;;11.82;7.18;;;;;;;;;;4970493;28;20749;-61
2023/07/07 07:27:34;;;;;;;11.43;6.47;;;;;;;;;;4970171;28;20351;-61
2023/07/07 07:30:00;;;;;;;12.48;7.03;;;;;;;;;;4970603;28;20269;-61
2023/07/07 07:32:25;;;;;;;13.05;6.70;;;;;;;;;;4970443;28;20301;-61
2023/07/07 07:34:50;;;;;;;11.93;7.00;;;;;;;;;;4969913;28;20337;-61
2023/07/07 07:37:16;;;;;;;13.30;6.93;;;;;;;;;;4970483;28;20226;-61
2023/07/07 07:39:41;;;;;;;13.27;6.65;;;;;;;;;;4970707;28;20206;-61
2023/07/07 07:42:06;;;;;;;15.07;7.35;;;;;;;;;;4952326;28;20247;-61
2023/07/07 07:44:32;;;;;;;20.05;8.15;;;;;;;;;;4972101;28;20206;-61
2023/07/07 07:46:57;;;;;;;14.45;7.75;;;;;;;;;;4974111;28;20214;-61
2023/07/07 07:49:23;;;;;;;12.63;6.47;;;;;;;;;;4972514;28;20233;-61
2023/07/07 07:51:48;;;;;;;12.98;6.95;;;;;;;;;;4973971;28;20214;-61
2023/07/07 07:54:14;;;;;;;12.15;6.00;;;;;;;;;;4973551;28;20268;-61
2023/07/07 07:56:39;;;;;;;13.00;6.63;;;;;;;;;;4973093;28;20614;-61
2023/07/07 07:59:04;;;;;;;12.80;7.00;;;;;;;;;;4973471;28;20620;-61
2023/07/07 08:01:30;;;;;;;13.65;6.40;;;;;;;;;;4973781;28;20210;-61
2023/07/07 08:03:55;;;;;;;13.27;5.95;;;;;;;;;;4973033;28;20269;-61
2023/07/07 08:06:20;;;;;;;12.90;6.22;;;;;;;;;;4973501;28;20202;-61
2023/07/07 08:08:46;;;;;;;12.60;5.75;;;;;;;;;;4973627;28;20218;-61
2023/07/07 08:11:11;;;;;;;13.60;5.85;;;;;;;;;;4973061;28;20218;-61
2023/07/07 08:13:37;;;;;;;10.65;4.55;;;;;;;;;;4973577;28;20233;-61
2023/07/07 08:16:02;;;;;;;11.77;4.97;;;;;;;;;;4972682;28;20300;-61
2023/07/07 08:18:27;;;;;;;9.48;4.90;;;;;;;;;;4973031;28;20232;-61
2023/07/07 08:20:53;;;;;;;8.43;3.80;;;;;;;;;;4973360;28;20221;-61
2023/07/07 08:23:18;;;;;;;8.38;3.03;;;;;;;;;;4972911;28;20612;-61
2023/07/07 08:25:45;;;;;;;7.63;3.15;;;;;;;;;;4972863;28;20681;-61
2023/07/07 08:28:11;;;;;;;8.40;2.88;;;;;;;;;;4972800;28;20641;-61
2023/07/07 08:30:36;;;;;;;10.18;3.00;;;;;;;;;;4972987;28;20265;-61
2023/07/07 08:33:01;;;;;;;7.93;2.95;;;;;;;;;;4972218;28;20272;-61
2023/07/07 08:35:26;;;;;;;7.07;2.88;;;;;;;;;;4972965;28;20205;-61
2023/07/07 08:37:52;;;;;;;6.63;2.90;;;;;;;;;;4973202;28;20268;-61
2023/07/07 08:40:19;;;;;;;6.75;2.90;;;;;;;;;;4972308;28;20244;-61
2023/07/07 08:42:44;;;;;;;7.50;3.03;;;;;;;;;;4972988;28;20593;-61
2023/07/07 08:45:12;;;;;;;7.65;2.55;;;;;;;;;;4971620;28;20214;-61
2023/07/07 08:47:47;;;;;;;8.25;2.58;;;;;;;;;;4971789;28;20300;-61
2023/07/07 08:50:12;;;;;;;8.73;2.70;;;;;;;;;;4972500;28;20684;-61
2023/07/07 08:52:38;;;;;;;5.60;2.67;;;;;;;;;;4972358;28;20221;-61
2023/07/07 08:55:07;;;;;;;7.20;2.53;;;;;;;;;;4972060;28;20218;-61
2023/07/07 08:57:34;;;;;;;5.65;2.28;;;;;;;;;;4972784;28;20225;-61
2023/07/07 09:00:00;;;;;;;7.47;2.50;;;;;;;;;;4970964;28;20213;-61
2023/07/07 09:02:33;;;;;;;7.13;2.50;;;;;;;;;;4971193;28;20260;-61
2023/07/07 09:04:58;;;;;;;4.80;2.30;;;;;;;;;;4971005;28;20589;-61
2023/07/07 09:07:30;;;;;;;5.78;2.45;;;;;;;;;;4971877;28;20206;-61
2023/07/07 09:10:00;;;;;;;7.50;2.42;;;;;;;;;;4972606;28;20244;-61
2023/07/07 09:12:41;;;;;;;6.78;2.40;;;;;;;;;;4972168;28;20296;-61
2023/07/07 09:15:10;;;;;;;4.15;1.95;;;;;;;;;;4954286;28;20205;-61
2023/07/07 09:17:38;;;;;;;5.75;2.30;;;;;;;;;;4955193;28;20255;-61
2023/07/07 09:20:04;;;;;;;7.05;2.20;;;;;;;;;;4954433;28;20690;-62
2023/07/07 09:22:38;;;;;;;4.47;2.22;;;;;;;;;;4972008;28;20300;-61
2023/07/07 09:25:03;;;;;;;4.80;2.10;;;;;;;;;;4971884;28;20213;-61
2023/07/07 09:27:31;;;;;;;4.65;2.00;;;;;;;;;;4971496;28;20259;-61
2023/07/07 09:30:00;;;;;;;5.82;2.00;;;;;;;;;;4954863;28;20319;-61
2023/07/07 09:32:25;;;;;;;6.38;2.10;;;;;;;;;;4954317;28;20739;-61
2023/07/07 09:34:51;;;;;;;4.53;2.03;;;;;;;;;;4971628;28;20214;-61
2023/07/07 09:37:21;;;;;;;4.95;1.95;;;;;;;;;;4971422;28;20241;-61
2023/07/07 09:39:56;;;;;;;4.90;1.85;;;;;;;;;;4954650;28;20210;-61
2023/07/07 09:42:22;;;;;;;6.28;2.22;;;;;;;;;;4971030;28;20214;-61
2023/07/07 09:44:50;;;;;;;4.78;2.38;;;;;;;;;;4971931;28;20696;-61
2023/07/07 09:47:28;;;;;;;5.00;1.90;;;;;;;;;;4971190;28;20218;-61
2023/07/07 09:49:59;;;;;;;4.22;2.00;;;;;;;;;;4954139;28;20300;-61
2023/07/07 09:52:33;;;;;;;8.75;2.03;;;;;;;;;;4971138;28;20213;-61
2023/07/07 09:54:58;;;;;;;4.68;1.92;;;;;;;;;;4954180;28;20256;-61
2023/07/07 09:57:26;;;;;;;6.32;2.80;;;;;;;;;;4970552;28;20733;-61
2023/07/07 09:59:52;;;;;;;6.78;2.28;;;;;;;;;;4971796;28;20225;-61
2023/07/07 10:02:18;;;;;;;5.30;2.20;;;;;;;;;;4969943;28;20214;-61
2023/07/07 10:04:46;;;;;;;6.35;2.00;;;;;;;;;;4954314;28;20217;-61
2023/07/07 10:07:12;;;;;;;5.53;2.20;;;;;;;;;;4970151;28;20299;-61
2023/07/07 10:09:37;;;;;;;5.28;1.80;;;;;;;;;;4961294;28;20325;-61
2023/07/07 10:12:04;;;;;;;5.22;2.15;;;;;;;;;;4970089;28;20205;-62
2023/07/07 10:14:29;;;;;;;7.55;2.10;;;;;;;;;;4969064;28;20218;-63
2023/07/07 10:16:59;;;;;;;6.43;2.20;;;;;;;;;;4956687;28;20236;-62
2023/07/07 10:19:26;;;;;;;2.95;2.00;;;;;;;;;;4970246;28;20213;-63
2023/07/07 10:21:52;;;;;;;5.28;1.90;;;;;;;;;;4971448;28;20218;-61
2023/07/07 10:24:17;;;;;;;4.57;2.10;;;;;;;;;;4970680;28;20217;-62
2023/07/07 10:26:45;;;;;;;7.05;2.30;;;;;;;;;;4970473;28;20213;-62
2023/07/07 10:29:11;;;;;;;5.22;1.90;;;;;;;;;;4969686;28;20300;-62
2023/07/07 10:31:40;;;;;;;4.97;2.20;;;;;;;;;;4955243;28;20292;-62
2023/07/07 10:34:21;;;;;;;5.45;2.00;;;;;;;;;;4953388;28;20210;-62
2023/07/07 10:36:46;;;;;;;3.80;1.92;;;;;;;;;;4952857;28;20214;-62
2023/07/07 10:39:12;;;;;;;5.55;2.25;;;;;;;;;;4970105;28;20245;-61
2023/07/07 10:41:37;;;;;;;6.07;2.25;;;;;;;;;;4969532;28;20719;-61
2023/07/07 10:44:02;;;;;;;4.72;2.03;;;;;;;;;;4970079;28;20217;-61
2023/07/07 10:46:32;;;;;;;5.80;2.03;;;;;;;;;;4969311;28;20308;-62
2023/07/07 10:48:57;;;;;;;4.82;1.80;;;;;;;;;;4970922;28;20268;-61
2023/07/07 10:51:23;;;;;;;4.22;2.13;;;;;;;;;;4969743;28;20681;-61
2023/07/07 10:53:57;;;;;;;4.45;1.92;;;;;;;;;;4969403;28;20217;-61
2023/07/07 10:56:28;;;;;;;3.50;1.67;;;;;;;;;;4967480;28;20218;-62
2023/07/07 10:58:57;;;;;;;5.93;2.15;;;;;;;;;;4952795;28;20917;-61
2023/07/07 11:01:30;;;;;;;4.45;2.13;;;;;;;;;;4967831;28;20221;-62
2023/07/07 11:04:00;;;;;;;3.83;1.90;;;;;;;;;;4944231;28;20304;-62
2023/07/07 11:06:28;;;;;;;4.95;2.17;;;;;;;;;;4953278;28;20220;-61
2023/07/07 11:08:57;;;;;;;6.05;1.95;;;;;;;;;;4955662;28;20711;-61
2023/07/07 11:11:25;;;;;;;4.82;2.00;;;;;;;;;;4970793;28;20402;-62
2023/07/07 11:13:55;;;;;;;5.03;2.08;;;;;;;;;;4970775;28;20222;-62
2023/07/07 11:16:25;;;;;;;3.80;2.15;;;;;;;;;;4969942;28;20689;-61
2023/07/07 11:19:06;;;;;;;4.95;2.30;;;;;;;;;;4972933;28;20228;-61
2023/07/07 11:21:42;;;;;;;4.13;2.00;;;;;;;;;;4952922;28;20267;-62
2023/07/07 11:24:10;;;;;;;5.93;2.10;;;;;;;;;;4955617;28;20214;-61
2023/07/07 11:26:39;;;;;;;5.03;2.20;;;;;;;;;;4954157;28;20237;-61
2023/07/07 11:29:12;;;;;;;7.82;2.28;;;;;;;;;;4972850;28;20271;-61
2023/07/07 11:31:42;;;;;;;4.95;1.95;;;;;;;;;;4970788;28;20230;-61
2023/07/07 11:34:09;;;;;;;2.95;1.60;;;;;;;;;;4955316;28;20232;-61
2023/07/07 11:36:34;;;;;;;4.38;2.00;;;;;;;;;;4973165;28;20210;-62
2023/07/07 11:39:00;;;;;;;4.28;2.33;;;;;;;;;;4973428;28;20217;-62
2023/07/07 11:41:36;;;;;;;3.95;2.00;;;;;;;;;;4969011;28;20224;-61
2023/07/07 11:44:05;;;;;;;4.18;1.88;;;;;;;;;;4953840;28;20213;-61
2023/07/07 11:46:37;;;;;;;3.78;2.10;;;;;;;;;;4973215;28;20236;-62
2023/07/07 11:49:23;;;;;;;5.45;2.28;;;;;;;;;;4970678;28;20209;-61
2023/07/07 11:51:51;;;;;;;6.25;1.98;;;;;;;;;;4971147;28;20676;-61
2023/07/07 11:54:22;;;;;;;4.60;1.90;;;;;;;;;;4967438;28;20210;-61
2023/07/07 11:56:47;;;;;;;3.90;1.98;;;;;;;;;;4953640;28;20803;-61
2023/07/07 11:59:31;;;;;;;5.80;2.03;;;;;;;;;;4972218;28;20673;-61
2023/07/07 12:01:57;;;;;;;5.47;2.33;;;;;;;;;;4969559;28;20206;-61
2023/07/07 12:04:23;;;;;;;5.07;2.17;;;;;;;;;;4955415;28;20240;-61
2023/07/07 12:06:48;;;;;;;7.18;2.42;;;;;;;;;;4973393;28;20214;-61
2023/07/07 12:09:18;;;;;;;4.50;2.00;;;;;;;;;;4965980;28;20224;-61
2023/07/07 12:11:45;;;;;;;4.03;2.10;;;;;;;;;;4971872;28;20653;-61
2023/07/07 12:14:13;;;;;;;4.25;2.10;;;;;;;;;;4971648;28;20221;-61
2023/07/07 12:16:40;;;;;;;5.15;1.92;;;;;;;;;;4973055;28;20234;-61
2023/07/07 12:19:11;;;;;;;4.75;2.30;;;;;;;;;;4972888;28;20689;-61
2023/07/07 12:21:36;;;;;;;4.30;2.00;;;;;;;;;;4973021;28;20556;-61
2023/07/07 12:24:03;;;;;;;4.45;2.05;;;;;;;;;;4972287;28;20210;-61
2023/07/07 12:26:30;;;;;;;6.13;2.58;;;;;;;;;;4972020;28;20237;-61
2023/07/07 12:28:56;;;;;;;6.32;2.35;;;;;;;;;;4973234;28;20627;-61
2023/07/07 12:31:22;;;;;;;5.10;2.10;;;;;;;;;;4971235;28;20230;-61
2023/07/07 12:33:51;;;;;;;3.92;2.10;;;;;;;;;;4973120;28;20225;-61
2023/07/07 12:36:16;;;;;;;5.97;2.10;;;;;;;;;;4972542;28;20213;-61
2023/07/07 12:38:41;;;;;;;5.38;2.42;;;;;;;;;;4955190;28;20222;-61
2023/07/07 12:41:14;;;;;;;5.75;2.15;;;;;;;;;;4972114;28;20294;-61
2023/07/07 12:43:40;;;;;;;5.93;2.47;;;;;;;;;;4973066;28;20205;-61
2023/07/07 12:46:14;;;;;;;6.38;2.40;;;;;;;;;;4972043;28;20221;-61
2023/07/07 12:48:40;;;;;;;5.82;2.20;;;;;;;;;;4972788;28;20209;-61
2023/07/07 12:51:05;;;;;;;6.10;2.55;;;;;;;;;;4954767;28;20268;-61
2023/07/07 12:53:31;;;;;;;5.15;2.25;;;;;;;;;;4972621;28;20268;-61
2023/07/07 12:55:58;;;;;;;3.83;2.28;;;;;;;;;;4972578;28;20284;-61
2023/07/07 12:58:29;;;;;;;7.50;2.55;;;;;;;;;;4971378;28;20222;-61
2023/07/07 13:01:09;;;;;;;8.00;2.47;;;;;;;;;;4971776;28;20214;-61
2023/07/07 13:03:42;;;;;;;5.50;2.33;;;;;;;;;;4971909;28;20209;-61
2023/07/07 13:06:24;;;;;;;6.63;2.53;;;;;;;;;;4970384;28;20269;-61
2023/07/07 13:09:01;;;;;;;6.65;2.47;;;;;;;;;;4972538;28;20276;-61
2023/07/07 13:11:30;;;;;;;7.75;2.33;;;;;;;;;;4972200;28;20217;-61
2023/07/07 13:13:55;;;;;;;5.60;2.38;;;;;;;;;;4954795;28;20206;-61
2023/07/07 13:16:22;;;;;;;5.05;2.22;;;;;;;;;;4971667;28;20264;-61
2023/07/07 13:18:47;;;;;;;7.35;2.30;;;;;;;;;;4972253;28;20718;-61
2023/07/07 13:21:12;;;;;;;6.25;2.70;;;;;;;;;;4970928;28;20213;-61
2023/07/07 13:23:39;;;;;;;5.65;2.35;;;;;;;;;;4971016;28;20209;-61
2023/07/07 13:26:04;;;;;;;5.13;2.65;;;;;;;;;;4970400;28;20220;-61
2023/07/07 13:28:30;;;;;;;5.85;2.35;;;;;;;;;;4971971;28;20210;-61
2023/07/07 13:30:57;;;;;;;5.10;2.05;;;;;;;;;;4970321;28;20584;-61
2023/07/07 13:33:24;;;;;;;5.45;2.13;;;;;;;;;;4953539;28;20673;-61
2023/07/07 13:35:52;;;;;;;8.30;2.40;;;;;;;;;;4946168;28;20498;-61
2023/07/07 13:38:19;;;;;;;5.57;2.50;;;;;;;;;;4957592;28;20233;-61
2023/07/07 13:40:44;;;;;;;6.53;2.40;;;;;;;;;;4961506;28;20697;-61
2023/07/07 13:43:15;;;;;;;6.18;2.40;;;;;;;;;;4947979;28;20213;-60
2023/07/07 13:45:41;;;;;;;5.90;2.30;;;;;;;;;;4955093;28;20218;-61
2023/07/07 13:48:08;;;;;;;4.95;2.15;;;;;;;;;;4946096;28;20627;-60
2023/07/07 13:50:34;;;;;;;7.10;2.10;;;;;;;;;;4954528;28;20217;-61
2023/07/07 13:53:00;;;;;;;3.33;2.20;;;;;;;;;;4947294;28;20214;-61
2023/07/07 13:55:29;;;;;;;6.38;2.25;;;;;;;;;;4943296;28;20246;-61
2023/07/07 13:57:55;;;;;;;4.32;2.10;;;;;;;;;;4940392;28;20245;-61
2023/07/07 14:00:23;;;;;;;6.35;2.25;;;;;;;;;;4958100;28;20681;-61
2023/07/07 14:02:49;;;;;;;5.50;2.38;;;;;;;;;;4943475;28;20225;-61
2023/07/07 14:05:15;;;;;;;6.10;2.20;;;;;;;;;;4965014;28;20250;-61
2023/07/07 14:07:40;;;;;;;5.00;2.33;;;;;;;;;;4937866;28;20720;-61
2023/07/07 14:10:26;;;;;;;5.93;2.33;;;;;;;;;;4945200;28;20230;-61
2023/07/07 14:12:51;;;;;;;5.15;2.00;;;;;;;;;;4965296;28;20225;-61
2023/07/07 14:15:16;;;;;;;6.80;2.25;;;;;;;;;;4958947;28;20213;-61
2023/07/07 14:17:42;;;;;;;8.27;2.25;;;;;;;;;;4930480;28;20226;-61
2023/07/07 14:20:10;;;;;;;4.63;2.15;;;;;;;;;;4939496;28;20206;-61
2023/07/07 14:22:36;;;;;;;4.57;2.25;;;;;;;;;;4940098;28;20213;-61
2023/07/07 14:25:03;;;;;;;3.45;1.90;;;;;;;;;;4958776;28;20217;-61
2023/07/07 14:27:30;;;;;;;6.68;2.10;;;;;;;;;;4964884;28;20272;-61
2023/07/07 14:29:56;;;;;;;4.22;1.92;;;;;;;;;;4964146;28;20242;-61
2023/07/07 14:32:25;;;;;;;6.63;2.15;;;;;;;;;;4946083;28;20220;-61
2023/07/07 14:34:51;;;;;;;19.20;2.65;;;;;;;;;;4947656;28;20221;-61
2023/07/07 14:37:18;;;;;;;6.68;1.90;;;;;;;;;;4963785;28;20226;-61
2023/07/07 14:39:48;;;;;;;3.88;1.92;;;;;;;;;;4947662;28;20213;-61